N1TS TNCM-TFFR
Flight info
| Callsign | N1TS |
|---|---|
| Flight time | 0h 31m |
| Altitude | 23000 |
| Route | MODOR2 ZPATA A517 BIMBO BIMBO2Z |
| Aircraft | B737/M-SDE2E3FGHIRWXY/LB1 |
Departure
| Time | 2026-04-17 13:33 |
|---|---|
| Airport | Princess Juliana International Airport (TNCM) |
Arrival
| Time | 2026-04-17 14:04 |
|---|---|
| Airport | Maryse Condé International Airport (TFFR) |
| Time | Latitude | Longitude | Altitude | Speed | Heading |
|---|---|---|---|---|---|
| 2026-04-17 13:07 | 18.04149 | -63.11409 | 20 ft | 0 kts | 171° |
| 2026-04-17 13:20 | 18.04169 | -63.11412 | 20 ft | 4 kts | 171° |
| 2026-04-17 13:20 | 18.04195 | -63.11416 | 23 ft | 4 kts | 172° |
| 2026-04-17 13:20 | 18.04219 | -63.11414 | 21 ft | 4 kts | 219° |
| 2026-04-17 13:20 | 18.04233 | -63.11392 | 20 ft | 4 kts | 254° |
| 2026-04-17 13:21 | 18.04238 | -63.11370 | 21 ft | 0 kts | 261° |
| 2026-04-17 13:21 | 18.04235 | -63.11389 | 20 ft | 4 kts | 261° |
| 2026-04-17 13:21 | 18.04232 | -63.11414 | 23 ft | 1 kts | 262° |
| 2026-04-17 13:23 | 18.04231 | -63.11418 | 20 ft | 4 kts | 262° |
| 2026-04-17 13:23 | 18.04216 | -63.11482 | 20 ft | 11 kts | 241° |
| 2026-04-17 13:24 | 18.04166 | -63.11546 | 20 ft | 11 kts | 229° |
| 2026-04-17 13:24 | 18.04119 | -63.11610 | 21 ft | 11 kts | 231° |
| 2026-04-17 13:24 | 18.04074 | -63.11672 | 21 ft | 11 kts | 242° |
| 2026-04-17 13:24 | 18.04056 | -63.11745 | 20 ft | 10 kts | 261° |
| 2026-04-17 13:25 | 18.04044 | -63.11818 | 20 ft | 10 kts | 264° |
| 2026-04-17 13:25 | 18.04042 | -63.11843 | 20 ft | 0 kts | 263° |
| 2026-04-17 13:25 | 18.04042 | -63.11844 | 20 ft | 1 kts | 263° |
| 2026-04-17 13:25 | 18.04041 | -63.11853 | 20 ft | 0 kts | 263° |
| 2026-04-17 13:31 | 18.04039 | -63.11865 | 22 ft | 4 kts | 263° |
| 2026-04-17 13:31 | 18.04029 | -63.11902 | 20 ft | 5 kts | 244° |
| 2026-04-17 13:31 | 18.04008 | -63.11935 | 20 ft | 5 kts | 233° |
| 2026-04-17 13:31 | 18.03982 | -63.11964 | 21 ft | 6 kts | 211° |
| 2026-04-17 13:32 | 18.03943 | -63.11952 | 21 ft | 7 kts | 115° |
| 2026-04-17 13:32 | 18.03944 | -63.11935 | 22 ft | 0 kts | 79° |
| 2026-04-17 13:32 | 18.03953 | -63.11887 | 21 ft | 32 kts | 80° |
| 2026-04-17 13:32 | 18.04028 | -63.11349 | 21 ft | 113 kts | 81° |
| 2026-04-17 13:33 | 18.04154 | -63.10350 | 283 ft | 150 kts | 85° |
| 2026-04-17 13:33 | 18.04244 | -63.09195 | 845 ft | 168 kts | 97° |
| 2026-04-17 13:33 | 18.03621 | -63.08075 | 1288 ft | 202 kts | 140° |
| 2026-04-17 13:33 | 18.02146 | -63.07654 | 1525 ft | 245 kts | 179° |
| 2026-04-17 13:34 | 18.00361 | -63.07818 | 1873 ft | 270 kts | 181° |
| 2026-04-17 13:34 | 17.98417 | -63.07979 | 2433 ft | 284 kts | 179° |
| 2026-04-17 13:34 | 17.96488 | -63.08091 | 3839 ft | 270 kts | 178° |
| 2026-04-17 13:34 | 17.94633 | -63.08154 | 5147 ft | 266 kts | 177° |
| 2026-04-17 13:35 | 17.92761 | -63.08180 | 6176 ft | 270 kts | 177° |
| 2026-04-17 13:35 | 17.90861 | -63.08189 | 7181 ft | 277 kts | 176° |
| 2026-04-17 13:35 | 17.88922 | -63.08192 | 8243 ft | 281 kts | 176° |
| 2026-04-17 13:35 | 17.86940 | -63.08173 | 9305 ft | 287 kts | 173° |
| 2026-04-17 13:36 | 17.85053 | -63.07505 | 10284 ft | 292 kts | 146° |
| 2026-04-17 13:36 | 17.83566 | -63.06045 | 10853 ft | 314 kts | 130° |
| 2026-04-17 13:36 | 17.81937 | -63.04520 | 11575 ft | 327 kts | 147° |
| 2026-04-17 13:36 | 17.80023 | -63.03345 | 12531 ft | 332 kts | 150° |
| 2026-04-17 13:37 | 17.78062 | -63.02199 | 13514 ft | 336 kts | 151° |
| 2026-04-17 13:37 | 17.76004 | -63.00990 | 14459 ft | 342 kts | 151° |
| 2026-04-17 13:37 | 17.73938 | -62.99755 | 15328 ft | 349 kts | 151° |
| 2026-04-17 13:37 | 17.71811 | -62.98465 | 16237 ft | 356 kts | 152° |
| 2026-04-17 13:38 | 17.69648 | -62.97140 | 17104 ft | 364 kts | 152° |
| 2026-04-17 13:38 | 17.67440 | -62.95778 | 17974 ft | 371 kts | 152° |
| 2026-04-17 13:38 | 17.65196 | -62.94390 | 18839 ft | 376 kts | 152° |
| 2026-04-17 13:38 | 17.62935 | -62.92989 | 19692 ft | 379 kts | 152° |
| 2026-04-17 13:39 | 17.60647 | -62.91570 | 20513 ft | 383 kts | 152° |
| 2026-04-17 13:39 | 17.58356 | -62.90149 | 21550 ft | 381 kts | 152° |
| 2026-04-17 13:39 | 17.56077 | -62.88735 | 22577 ft | 382 kts | 152° |
| 2026-04-17 13:39 | 17.53786 | -62.87316 | 22932 ft | 382 kts | 152° |
| 2026-04-17 13:40 | 17.51497 | -62.85899 | 23019 ft | 383 kts | 153° |
| 2026-04-17 13:40 | 17.49208 | -62.84482 | 23027 ft | 381 kts | 153° |
| 2026-04-17 13:40 | 17.46926 | -62.83083 | 23036 ft | 379 kts | 154° |
| 2026-04-17 13:40 | 17.44581 | -62.81830 | 23016 ft | 378 kts | 158° |
| 2026-04-17 13:41 | 17.42204 | -62.80671 | 23030 ft | 377 kts | 159° |
| 2026-04-17 13:41 | 17.39853 | -62.79541 | 23027 ft | 377 kts | 159° |
| 2026-04-17 13:41 | 17.37480 | -62.78383 | 23021 ft | 377 kts | 158° |
| 2026-04-17 13:41 | 17.35110 | -62.77208 | 23028 ft | 377 kts | 158° |
| 2026-04-17 13:42 | 17.32741 | -62.76024 | 23025 ft | 377 kts | 158° |
| 2026-04-17 13:42 | 17.30421 | -62.74740 | 23011 ft | 379 kts | 150° |
| 2026-04-17 13:42 | 17.28321 | -62.73052 | 23029 ft | 383 kts | 140° |
| 2026-04-17 13:42 | 17.26480 | -62.71024 | 23031 ft | 385 kts | 135° |
| 2026-04-17 13:43 | 17.24706 | -62.68923 | 23025 ft | 385 kts | 134° |
| 2026-04-17 13:43 | 17.22950 | -62.66807 | 23023 ft | 386 kts | 134° |
| 2026-04-17 13:43 | 17.21190 | -62.64686 | 23022 ft | 386 kts | 134° |
| 2026-04-17 13:43 | 17.19420 | -62.62565 | 23016 ft | 386 kts | 134° |
| 2026-04-17 13:44 | 17.17646 | -62.60453 | 23028 ft | 386 kts | 134° |
| 2026-04-17 13:44 | 17.15869 | -62.58347 | 23021 ft | 386 kts | 134° |
| 2026-04-17 13:44 | 17.14087 | -62.56243 | 23015 ft | 386 kts | 134° |
| 2026-04-17 13:44 | 17.12309 | -62.54147 | 23028 ft | 386 kts | 134° |
| 2026-04-17 13:45 | 17.10526 | -62.52047 | 23020 ft | 386 kts | 134° |
| 2026-04-17 13:45 | 17.08740 | -62.49946 | 23013 ft | 386 kts | 135° |
| 2026-04-17 13:45 | 17.06957 | -62.47850 | 23017 ft | 386 kts | 135° |
| 2026-04-17 13:45 | 17.05171 | -62.45750 | 23023 ft | 387 kts | 135° |
| 2026-04-17 13:46 | 17.03405 | -62.43675 | 23025 ft | 387 kts | 135° |
| 2026-04-17 13:46 | 17.01621 | -62.41579 | 22733 ft | 385 kts | 135° |
| 2026-04-17 13:46 | 16.99855 | -62.39503 | 22325 ft | 379 kts | 135° |
| 2026-04-17 13:46 | 16.98109 | -62.37451 | 21819 ft | 377 kts | 134° |
| 2026-04-17 13:47 | 16.96369 | -62.35408 | 21334 ft | 374 kts | 134° |
| 2026-04-17 13:47 | 16.94646 | -62.33386 | 20852 ft | 371 kts | 134° |
| 2026-04-17 13:47 | 16.92934 | -62.31377 | 20356 ft | 369 kts | 134° |
| 2026-04-17 13:47 | 16.91231 | -62.29380 | 19865 ft | 367 kts | 134° |
| 2026-04-17 13:48 | 16.89534 | -62.27392 | 19355 ft | 366 kts | 134° |
| 2026-04-17 13:48 | 16.87846 | -62.25413 | 18874 ft | 364 kts | 134° |
| 2026-04-17 13:48 | 16.86164 | -62.23443 | 18351 ft | 363 kts | 133° |
| 2026-04-17 13:48 | 16.84484 | -62.21474 | 17788 ft | 362 kts | 134° |
| 2026-04-17 13:49 | 16.82816 | -62.19521 | 17273 ft | 359 kts | 133° |
| 2026-04-17 13:49 | 16.81164 | -62.17586 | 16765 ft | 355 kts | 133° |
| 2026-04-17 13:49 | 16.79545 | -62.15690 | 16273 ft | 353 kts | 134° |
| 2026-04-17 13:49 | 16.77919 | -62.13786 | 15782 ft | 349 kts | 134° |
| 2026-04-17 13:50 | 16.76305 | -62.11899 | 15299 ft | 346 kts | 133° |
| 2026-04-17 13:50 | 16.74713 | -62.10038 | 14820 ft | 343 kts | 133° |
| 2026-04-17 13:50 | 16.73131 | -62.08188 | 14342 ft | 340 kts | 133° |
| 2026-04-17 13:50 | 16.71563 | -62.06355 | 13860 ft | 337 kts | 133° |
| 2026-04-17 13:51 | 16.70009 | -62.04538 | 13326 ft | 334 kts | 133° |
| 2026-04-17 13:51 | 16.68470 | -62.02739 | 12817 ft | 330 kts | 133° |
| 2026-04-17 13:51 | 16.66948 | -62.00961 | 12325 ft | 326 kts | 133° |
| 2026-04-17 13:51 | 16.65458 | -61.99223 | 11847 ft | 323 kts | 132° |
| 2026-04-17 13:52 | 16.63959 | -61.97485 | 11362 ft | 320 kts | 135° |
| 2026-04-17 13:52 | 16.62150 | -61.96178 | 10880 ft | 317 kts | 158° |
| 2026-04-17 13:52 | 16.60038 | -61.95646 | 10482 ft | 311 kts | 173° |
| 2026-04-17 13:52 | 16.57904 | -61.95417 | 10240 ft | 301 kts | 175° |
| 2026-04-17 13:53 | 16.55855 | -61.95234 | 10074 ft | 290 kts | 175° |
| 2026-04-17 13:53 | 16.53866 | -61.95057 | 9731 ft | 286 kts | 175° |
| 2026-04-17 13:53 | 16.51891 | -61.94874 | 9339 ft | 283 kts | 174° |
| 2026-04-17 13:53 | 16.49936 | -61.94686 | 8952 ft | 281 kts | 174° |
| 2026-04-17 13:54 | 16.46067 | -61.94301 | 8196 ft | 277 kts | 173° |
| 2026-04-17 13:54 | 16.44155 | -61.94107 | 7831 ft | 275 kts | 173° |
| 2026-04-17 13:55 | 16.40393 | -61.93724 | 7103 ft | 271 kts | 173° |
| 2026-04-17 13:55 | 16.38522 | -61.93534 | 6761 ft | 269 kts | 172° |
| 2026-04-17 13:55 | 16.34982 | -61.92700 | 6149 ft | 252 kts | 140° |
| 2026-04-17 13:56 | 16.33247 | -61.89817 | 5810 ft | 230 kts | 101° |
| 2026-04-17 13:56 | 16.32948 | -61.88224 | 5704 ft | 220 kts | 99° |
| 2026-04-17 13:56 | 16.32680 | -61.86694 | 5609 ft | 210 kts | 99° |
| 2026-04-17 13:57 | 16.32425 | -61.85242 | 5534 ft | 199 kts | 99° |
| 2026-04-17 13:57 | 16.32175 | -61.83849 | 5469 ft | 193 kts | 99° |
| 2026-04-17 13:57 | 16.31685 | -61.81166 | 5161 ft | 187 kts | 100° |
| 2026-04-17 13:58 | 16.31441 | -61.79840 | 4896 ft | 186 kts | 99° |
| 2026-04-17 13:58 | 16.30949 | -61.77158 | 4461 ft | 189 kts | 100° |
| 2026-04-17 13:58 | 16.30706 | -61.75818 | 4230 ft | 188 kts | 100° |
| 2026-04-17 13:59 | 16.30225 | -61.73090 | 3738 ft | 200 kts | 101° |
| 2026-04-17 13:59 | 16.29951 | -61.71684 | 3623 ft | 196 kts | 101° |
| 2026-04-17 13:59 | 16.29684 | -61.70265 | 3174 ft | 199 kts | 100° |
| 2026-04-17 14:00 | 16.29422 | -61.68852 | 2861 ft | 197 kts | 100° |
| 2026-04-17 14:00 | 16.29167 | -61.67472 | 2590 ft | 192 kts | 100° |
| 2026-04-17 14:00 | 16.28921 | -61.66144 | 2316 ft | 183 kts | 99° |
| 2026-04-17 14:00 | 16.28690 | -61.64895 | 2079 ft | 167 kts | 101° |
| 2026-04-17 14:01 | 16.28480 | -61.63752 | 1846 ft | 155 kts | 102° |
| 2026-04-17 14:01 | 16.28285 | -61.62698 | 1670 ft | 141 kts | 101° |
| 2026-04-17 14:01 | 16.28112 | -61.61760 | 1478 ft | 125 kts | 101° |
| 2026-04-17 14:01 | 16.27955 | -61.60911 | 1301 ft | 116 kts | 98° |
| 2026-04-17 14:02 | 16.27806 | -61.60103 | 1137 ft | 114 kts | 99° |
| 2026-04-17 14:02 | 16.27661 | -61.59315 | 977 ft | 111 kts | 99° |
| 2026-04-17 14:02 | 16.27515 | -61.58515 | 860 ft | 116 kts | 102° |
| 2026-04-17 14:02 | 16.27353 | -61.57645 | 707 ft | 129 kts | 101° |
| 2026-04-17 14:03 | 16.27189 | -61.56756 | 507 ft | 118 kts | 105° |
| 2026-04-17 14:03 | 16.27056 | -61.55946 | 272 ft | 113 kts | 104° |
| 2026-04-17 14:03 | 16.26890 | -61.55126 | 200 ft | 117 kts | 104° |
| 2026-04-17 14:03 | 16.26738 | -61.54321 | 47 ft | 109 kts | 101° |
| 2026-04-17 14:04 | 16.26611 | -61.53616 | 22 ft | 83 kts | 102° |
| 2026-04-17 14:04 | 16.26530 | -61.53186 | 19 ft | 39 kts | 101° |
| 2026-04-17 14:04 | 16.26538 | -61.52996 | 19 ft | 24 kts | 37° |
| 2026-04-17 14:04 | 16.26691 | -61.52958 | 20 ft | 9 kts | 12° |
| 2026-04-17 14:05 | 16.26697 | -61.52957 | 22 ft | 1 kts | 11° |
| 2026-04-17 14:05 | 16.26726 | -61.52951 | 22 ft | 9 kts | 11° |
| 2026-04-17 14:05 | 16.26797 | -61.52938 | 20 ft | 11 kts | 12° |
| 2026-04-17 14:05 | 16.26861 | -61.52900 | 20 ft | 10 kts | 24° |
| 2026-04-17 14:06 | 16.26908 | -61.52888 | 22 ft | 4 kts | 9° |
| 2026-04-17 14:06 | 16.26932 | -61.52883 | 20 ft | 3 kts | 10° |
| 2026-04-17 14:06 | 16.26942 | -61.52881 | 20 ft | 0 kts | 11° |
| 2026-04-17 14:06 | 16.26943 | -61.52881 | 20 ft | 0 kts | 10° |